createdAt,value
2024-05-09T00:01:06.095Z,84.52
2024-05-09T00:06:07.305Z,83.99
2024-05-09T00:11:11.006Z,83.13
2024-05-09T00:16:11.795Z,83.33
2024-05-09T00:21:12.558Z,84.32
2024-05-09T00:26:18.563Z,83.73
2024-05-09T00:31:19.220Z,83.43
2024-05-09T00:36:19.873Z,84.43
2024-05-09T00:41:23.257Z,85.61
2024-05-09T00:46:24.191Z,85.02
2024-05-09T00:51:25.234Z,85.14
2024-05-09T00:56:29.034Z,84.84
2024-05-09T01:01:29.958Z,86.19
2024-05-09T01:06:30.808Z,86.49
2024-05-09T01:11:40.130Z,86.29
2024-05-09T01:16:41.545Z,87.93
2024-05-09T01:21:44.373Z,87.45
2024-05-09T01:26:47.738Z,87.18
2024-05-09T01:31:48.998Z,86.67
2024-05-09T01:36:49.737Z,87.06
2024-05-09T01:41:53.150Z,87.20
2024-05-09T01:46:53.889Z,87.37
2024-05-09T01:51:54.579Z,87.78
2024-05-09T01:56:57.952Z,87.02
2024-05-09T02:01:58.749Z,89.54
2024-05-09T02:06:59.585Z,87.64
2024-05-09T02:12:03.042Z,87.77
2024-05-09T02:17:04.044Z,87.23
2024-05-09T02:22:05.290Z,87.44
2024-05-09T02:27:08.944Z,87.82
2024-05-09T02:32:10.213Z,88.08
2024-05-09T02:37:10.911Z,88.54
2024-05-09T02:42:14.310Z,88.57
2024-05-09T02:47:15.126Z,89.00
2024-05-09T02:52:18.324Z,89.10
2024-05-09T02:57:21.805Z,88.94
2024-05-09T03:02:22.645Z,90.10
2024-05-09T03:07:23.382Z,88.94
2024-05-09T03:12:26.866Z,88.60
2024-05-09T03:17:28.115Z,89.59
2024-05-09T03:22:29.131Z,88.36
2024-05-09T03:27:32.501Z,89.37
2024-05-09T03:32:33.429Z,89.79
2024-05-09T03:37:34.248Z,90.42
2024-05-09T03:42:41.025Z,89.81
2024-05-09T03:47:41.985Z,89.77
2024-05-09T03:52:42.883Z,89.08
2024-05-09T03:57:46.228Z,89.22
2024-05-09T04:02:49.564Z,89.58
2024-05-09T04:07:50.385Z,87.85
2024-05-09T04:12:54.593Z,87.67
2024-05-09T04:17:55.690Z,87.28
2024-05-09T04:22:56.706Z,86.88
2024-05-09T04:28:00.191Z,86.66
2024-05-09T04:33:01.105Z,86.93
2024-05-09T04:38:01.997Z,86.39
2024-05-09T04:43:05.797Z,86.56
2024-05-09T04:48:07.335Z,86.17
2024-05-09T04:53:10.178Z,86.54
2024-05-09T04:58:14.741Z,88.06
2024-05-09T05:03:17.158Z,87.35
2024-05-09T05:08:19.877Z,86.90
2024-05-09T05:13:24.176Z,87.07
2024-05-09T05:18:25.957Z,86.97
2024-05-09T05:23:27.230Z,87.94
2024-05-09T05:28:30.661Z,88.84
2024-05-09T05:33:31.598Z,88.45
2024-05-09T05:38:32.459Z,88.89
2024-05-09T05:43:35.955Z,86.72
2024-05-09T05:48:37.309Z,86.54
2024-05-09T05:53:38.183Z,84.19
2024-05-09T05:58:43.449Z,85.17
2024-05-09T06:03:44.308Z,83.30
2024-05-09T06:08:45.357Z,84.08
2024-05-09T06:13:48.957Z,83.94
2024-05-09T06:18:49.895Z,83.53
2024-05-09T06:23:51.011Z,81.91
2024-05-09T06:28:54.397Z,82.18
2024-05-09T06:33:56.257Z,82.12
2024-05-09T06:38:57.587Z,82.48
2024-05-09T06:44:01.157Z,82.55
2024-05-09T06:49:04.799Z,83.29
2024-05-09T06:54:05.709Z,81.19
2024-05-09T06:59:09.208Z,80.72
2024-05-09T07:04:10.018Z,77.51
2024-05-09T07:09:10.738Z,76.45
2024-05-09T07:14:16.143Z,77.24
2024-05-09T07:19:17.002Z,76.73
2024-05-09T07:24:17.913Z,77.18
2024-05-09T07:29:24.497Z,76.25
2024-05-09T07:34:25.569Z,76.46
2024-05-09T07:39:26.313Z,75.42
2024-05-09T07:44:30.714Z,75.51
2024-05-09T07:54:36.406Z,76.87
2024-05-09T07:59:39.904Z,76.64
2024-05-09T08:04:40.771Z,77.23
2024-05-09T08:09:41.611Z,77.71
2024-05-09T08:14:45.015Z,78.88
2024-05-09T08:19:45.708Z,78.89
2024-05-09T08:24:47.022Z,77.28
2024-05-09T08:29:50.533Z,75.44
2024-05-09T08:34:51.396Z,74.95
2024-05-09T08:39:52.278Z,73.69
2024-05-09T08:44:55.808Z,73.14
2024-05-09T08:49:58.735Z,73.30
2024-05-09T08:54:59.650Z,72.80
2024-05-09T09:00:10.311Z,71.78
2024-05-09T09:05:21.603Z,73.23
2024-05-09T09:10:29.947Z,71.75
2024-05-09T09:15:35.702Z,71.58
2024-05-09T09:20:37.186Z,70.69
2024-05-09T09:25:42.783Z,68.54
2024-05-09T09:30:47.486Z,69.67
2024-05-09T09:35:48.401Z,69.39
2024-05-09T09:40:50.561Z,67.95
2024-05-09T09:45:56.110Z,67.75
2024-05-09T09:50:58.558Z,66.58
2024-05-09T09:55:59.643Z,65.67
2024-05-09T10:01:03.157Z,65.03
2024-05-09T10:06:04.516Z,63.87
2024-05-09T10:11:07.446Z,64.54
2024-05-09T10:16:14.774Z,64.29
2024-05-09T10:21:19.990Z,64.62
2024-05-09T10:26:20.958Z,64.68
2024-05-09T10:31:24.533Z,65.21
2024-05-09T10:36:26.402Z,64.63
2024-05-09T10:41:27.332Z,64.44
2024-05-09T10:46:31.226Z,64.25
2024-05-09T10:51:32.691Z,64.67
2024-05-09T10:56:33.432Z,64.35
2024-05-09T11:01:37.160Z,64.46
2024-05-09T11:06:39.838Z,64.93
2024-05-09T11:11:40.850Z,65.38
2024-05-09T11:16:44.541Z,66.55
2024-05-09T11:21:45.640Z,66.15
2024-05-09T11:26:46.595Z,67.10
2024-05-09T11:31:53.019Z,67.02
2024-05-09T11:36:53.994Z,68.21
2024-05-09T11:41:54.932Z,67.47
2024-05-09T11:46:58.650Z,68.18
2024-05-09T11:51:59.482Z,66.81
2024-05-09T11:57:00.464Z,68.36
2024-05-09T12:02:05.087Z,67.76
2024-05-09T12:07:07.296Z,67.02
2024-05-09T12:12:09.320Z,67.36
2024-05-09T12:17:12.918Z,66.23
2024-05-09T12:22:13.707Z,66.02
2024-05-09T12:27:14.720Z,65.46
2024-05-09T12:32:20.187Z,66.01
2024-05-09T12:37:21.582Z,65.99
2024-05-09T12:42:27.110Z,67.03
2024-05-09T12:47:31.977Z,67.39
2024-05-09T12:52:33.995Z,66.91
2024-05-09T12:57:34.830Z,67.66
2024-05-09T13:02:38.465Z,67.46
2024-05-09T13:07:39.300Z,66.89
2024-05-09T13:12:40.066Z,68.04
2024-05-09T13:17:43.618Z,67.07
2024-05-09T13:22:44.645Z,67.32
2024-05-09T13:27:45.424Z,67.34
2024-05-09T13:32:48.903Z,67.80
2024-05-09T13:37:50.051Z,68.10
2024-05-09T13:42:50.760Z,68.21
2024-05-09T13:47:54.345Z,68.59
2024-05-09T13:52:55.692Z,67.40
2024-05-09T13:57:56.755Z,67.52
2024-05-09T14:03:00.307Z,68.09
2024-05-09T14:08:01.192Z,67.01
2024-05-09T14:13:02.075Z,66.77
2024-05-09T14:18:06.606Z,68.12
2024-05-09T14:23:08.350Z,67.49
2024-05-09T14:28:10.474Z,67.89
2024-05-09T14:33:16.473Z,67.21
2024-05-09T14:38:17.534Z,67.13
2024-05-09T14:43:18.330Z,66.83
2024-05-09T14:48:22.682Z,67.15
2024-05-09T14:53:23.794Z,67.12
2024-05-09T14:58:24.720Z,67.64
2024-05-09T15:03:28.222Z,67.19
2024-05-09T15:08:28.994Z,67.31
2024-05-09T15:13:29.796Z,67.07
2024-05-09T15:18:33.878Z,67.28
2024-05-09T15:23:34.814Z,66.63
2024-05-09T15:28:35.607Z,66.24
2024-05-09T15:33:39.908Z,66.44
2024-05-09T15:38:41.366Z,66.08
2024-05-09T15:43:42.151Z,65.34
2024-05-09T15:48:46.043Z,65.59
2024-05-09T15:53:47.125Z,64.74
2024-05-09T15:58:48.120Z,64.82
2024-05-09T16:03:54.225Z,65.18
2024-05-09T16:08:55.069Z,65.68
2024-05-09T16:13:55.879Z,65.63
2024-05-09T16:18:59.640Z,66.13
2024-05-09T16:24:01.924Z,66.33
2024-05-09T16:29:02.983Z,65.92
2024-05-09T16:34:06.640Z,65.83
2024-05-09T16:39:07.636Z,65.64
2024-05-09T16:44:08.757Z,65.24
2024-05-09T16:49:14.762Z,65.28
2024-05-09T16:54:15.676Z,65.77
2024-05-09T16:59:17.664Z,65.88
2024-05-09T17:04:21.351Z,65.86
2024-05-09T17:09:24.858Z,65.91
2024-05-09T17:14:25.593Z,65.25
2024-05-09T17:19:29.157Z,64.90
2024-05-09T17:24:29.975Z,65.66
2024-05-09T17:29:31.170Z,67.03
2024-05-09T17:34:35.144Z,68.60
2024-05-09T17:39:36.371Z,70.17
2024-05-09T17:44:37.425Z,70.79
2024-05-09T17:49:41.468Z,71.33
2024-05-09T17:54:42.741Z,71.81
2024-05-09T17:59:43.974Z,71.51
2024-05-09T18:04:47.511Z,71.91
2024-05-09T18:09:49.100Z,72.25
2024-05-09T18:14:50.168Z,72.24
2024-05-09T18:19:53.676Z,72.65
2024-05-09T18:24:55.132Z,73.02
2024-05-09T18:29:58.514Z,72.88
2024-05-09T18:35:02.440Z,73.40
2024-05-09T18:45:05.317Z,73.08
2024-05-09T18:50:14.835Z,73.09
2024-05-09T18:55:24.214Z,73.21
2024-05-09T19:00:33.549Z,72.57
2024-05-09T19:05:41.470Z,74.22
2024-05-09T19:10:43.120Z,73.35
2024-05-09T19:15:46.822Z,73.00
2024-05-09T19:20:52.135Z,73.65
2024-05-09T19:25:52.832Z,73.68
2024-05-09T19:30:53.721Z,73.88
2024-05-09T19:35:57.199Z,73.81
2024-05-09T19:40:58.050Z,73.68
2024-05-09T19:45:58.835Z,73.70
2024-05-09T19:51:02.381Z,73.46
2024-05-09T19:56:03.347Z,74.02
2024-05-09T20:01:04.193Z,74.68
2024-05-09T20:06:07.891Z,75.58
2024-05-09T20:11:08.682Z,77.05
2024-05-09T20:16:10.569Z,76.71
2024-05-09T20:21:13.999Z,76.20
2024-05-09T20:26:14.655Z,75.41
2024-05-09T20:31:22.761Z,75.82
2024-05-09T20:36:26.256Z,75.74
2024-05-09T20:41:28.004Z,75.98
2024-05-09T20:46:28.737Z,75.44
2024-05-09T20:51:32.178Z,75.43
2024-05-09T20:56:32.998Z,75.07
2024-05-09T21:01:33.972Z,75.19
2024-05-09T21:06:37.585Z,75.05
2024-05-09T21:11:38.490Z,75.05
2024-05-09T21:16:39.502Z,74.89
2024-05-09T21:21:45.088Z,74.85
2024-05-09T21:26:45.752Z,74.74
2024-05-09T21:31:46.418Z,74.60
2024-05-09T21:36:49.855Z,74.41
2024-05-09T21:41:50.567Z,74.42
2024-05-09T21:46:51.631Z,74.25
2024-05-09T21:51:55.328Z,74.56
2024-05-09T21:56:56.033Z,74.49
2024-05-09T22:01:56.942Z,74.63
2024-05-09T22:07:00.494Z,74.49
2024-05-09T22:12:01.353Z,74.37
2024-05-09T22:17:02.114Z,74.63
2024-05-09T22:22:05.539Z,74.63
2024-05-09T22:27:06.770Z,74.69
2024-05-09T22:32:07.966Z,74.28
2024-05-09T22:37:11.479Z,74.33
2024-05-09T22:42:12.256Z,74.41
2024-05-09T22:47:13.051Z,74.11
2024-05-09T22:52:18.940Z,74.84
2024-05-09T22:57:19.672Z,75.18
2024-05-09T23:02:20.495Z,75.25
2024-05-09T23:07:23.972Z,75.26
2024-05-09T23:12:24.673Z,75.16
2024-05-09T23:17:25.548Z,75.37
2024-05-09T23:22:29.002Z,75.66
2024-05-09T23:27:29.670Z,75.53
2024-05-09T23:32:30.441Z,75.13
2024-05-09T23:37:33.882Z,75.00
2024-05-09T23:42:34.637Z,74.73
2024-05-09T23:47:35.415Z,74.50
2024-05-09T23:52:39.070Z,74.47
2024-05-09T23:57:39.830Z,74.56
